createdAt,value
2023-05-02T00:02:02.679Z,1.00
2023-05-02T00:04:30.965Z,4.50
2023-05-02T00:07:00.512Z,3.00
2023-05-02T00:09:28.573Z,3.00
2023-05-02T00:11:56.884Z,3.25
2023-05-02T00:14:25.763Z,2.00
2023-05-02T00:16:53.804Z,3.00
2023-05-02T00:19:22.004Z,3.50
2023-05-02T00:21:50.260Z,3.25
2023-05-02T00:24:20.229Z,3.00
2023-05-02T00:26:48.312Z,1.00
2023-05-02T00:29:16.795Z,0.75
2023-05-02T00:31:45.198Z,3.00
2023-05-02T00:34:13.230Z,1.00
2023-05-02T00:36:41.289Z,0.00
2023-05-02T00:39:09.922Z,3.00
2023-05-02T00:41:39.408Z,1.00
2023-05-02T00:44:08.602Z,3.00
2023-05-02T00:46:36.762Z,3.00
2023-05-02T00:49:04.830Z,1.00
2023-05-02T00:51:34.556Z,1.00
2023-05-02T00:54:02.786Z,3.00
2023-05-02T00:56:30.833Z,3.00
2023-05-02T00:59:01.578Z,1.50
2023-05-02T01:01:35.679Z,2.00
2023-05-02T01:04:12.414Z,2.50
2023-05-02T01:06:49.264Z,1.00
2023-05-02T01:09:26.625Z,0.50
2023-05-02T01:11:58.258Z,1.50
2023-05-02T01:14:31.063Z,3.25
2023-05-02T01:17:00.418Z,3.50
2023-05-02T01:19:32.847Z,3.00
2023-05-02T01:22:03.187Z,2.00
2023-05-02T01:24:34.111Z,1.00
2023-05-02T01:27:09.134Z,2.50
2023-05-02T01:29:39.179Z,3.00
2023-05-02T01:32:08.003Z,4.50
2023-05-02T01:34:37.605Z,3.50
2023-05-02T01:37:07.251Z,3.00
2023-05-02T01:39:36.960Z,1.00
2023-05-02T01:42:06.260Z,3.00
2023-05-02T01:44:36.107Z,0.25
2023-05-02T01:47:07.219Z,3.00
2023-05-02T01:49:36.171Z,0.00
2023-05-02T01:52:06.324Z,3.00
2023-05-02T01:54:36.500Z,4.00
2023-05-02T01:57:07.451Z,3.25
2023-05-02T01:59:36.711Z,3.00
2023-05-02T02:02:07.667Z,4.00
2023-05-02T02:04:36.475Z,1.00
2023-05-02T02:07:07.724Z,3.00
2023-05-02T02:09:35.937Z,4.00
2023-05-02T02:12:06.907Z,4.00
2023-05-02T02:14:36.383Z,4.00
2023-05-02T02:17:08.208Z,2.00
2023-05-02T02:19:39.743Z,4.00
2023-05-02T02:22:09.950Z,2.00
2023-05-02T02:24:39.863Z,2.00
2023-05-02T02:27:07.922Z,2.00
2023-05-02T02:29:36.220Z,4.00
2023-05-02T02:32:04.415Z,4.50
2023-05-02T02:34:32.674Z,2.00
2023-05-02T02:37:06.264Z,1.00
2023-05-02T02:39:41.598Z,2.00
2023-05-02T02:42:13.167Z,4.00
2023-05-02T02:44:45.586Z,4.00
2023-05-02T02:47:16.673Z,1.50
2023-05-02T02:49:48.867Z,2.00
2023-05-02T02:52:23.630Z,0.00
2023-05-02T02:54:53.892Z,4.75
2023-05-02T02:57:28.222Z,1.75
2023-05-02T02:59:59.801Z,3.00
2023-05-02T03:02:30.561Z,1.00
2023-05-02T03:04:59.237Z,0.00
2023-05-02T03:07:30.284Z,3.75
2023-05-02T03:10:18.377Z,3.00
2023-05-02T03:12:47.942Z,3.00
2023-05-02T03:15:24.564Z,1.75
2023-05-02T03:17:53.460Z,1.75
2023-05-02T03:20:22.459Z,4.00
2023-05-02T03:22:52.465Z,3.00
2023-05-02T03:25:20.512Z,0.25
2023-05-02T03:27:50.777Z,0.00
2023-05-02T03:30:19.516Z,3.00
2023-05-02T03:32:48.505Z,3.25
2023-05-02T03:35:17.626Z,1.00
2023-05-02T03:37:47.660Z,3.00
2023-05-02T03:40:21.972Z,4.00
2023-05-02T03:42:50.357Z,3.00
2023-05-02T03:45:28.184Z,2.25
2023-05-02T03:47:57.041Z,3.75
2023-05-02T03:50:25.431Z,3.25
2023-05-02T03:52:54.792Z,2.00
2023-05-02T03:55:33.801Z,3.00
2023-05-02T03:58:03.215Z,3.50
2023-05-02T04:00:32.752Z,1.00
2023-05-02T04:03:05.821Z,2.00
2023-05-02T04:05:35.858Z,1.25
2023-05-02T04:08:04.118Z,1.00
2023-05-02T04:10:33.960Z,1.50
2023-05-02T04:13:05.177Z,1.00
2023-05-02T04:15:35.011Z,1.50
2023-05-02T04:18:03.242Z,0.00
2023-05-02T04:20:32.188Z,0.00
2023-05-02T04:23:00.329Z,1.00
2023-05-02T04:25:28.976Z,0.00
2023-05-02T04:28:01.178Z,1.00
2023-05-02T04:30:29.663Z,0.50
2023-05-02T04:33:03.266Z,0.75
2023-05-02T04:35:35.204Z,1.00
2023-05-02T04:38:05.374Z,1.00
2023-05-02T04:40:34.703Z,1.00
2023-05-02T04:43:08.018Z,0.00
2023-05-02T04:45:41.412Z,1.00
2023-05-02T04:48:15.991Z,0.75
2023-05-02T04:50:46.284Z,0.00
2023-05-02T04:53:14.438Z,0.75
2023-05-02T04:55:43.188Z,0.50
2023-05-02T04:58:13.857Z,0.00
2023-05-02T05:00:42.980Z,0.00
2023-05-02T05:03:11.230Z,0.00
2023-05-02T05:05:39.750Z,1.00
2023-05-02T05:08:10.946Z,0.00
2023-05-02T05:10:40.588Z,0.00
2023-05-02T05:13:09.678Z,0.00
2023-05-02T05:15:39.568Z,1.00
2023-05-02T05:18:08.325Z,0.25
2023-05-02T05:20:36.492Z,0.50
2023-05-02T05:23:06.263Z,0.25
2023-05-02T05:25:35.232Z,0.00
2023-05-02T05:28:03.285Z,0.00
2023-05-02T05:30:33.339Z,0.00
2023-05-02T05:33:04.482Z,0.00
2023-05-02T05:35:33.365Z,0.00
2023-05-02T05:38:02.992Z,0.00
2023-05-02T05:40:34.331Z,0.50
2023-05-02T05:43:02.659Z,0.00
2023-05-02T05:45:35.468Z,0.00
2023-05-02T05:48:07.380Z,0.00
2023-05-02T05:50:43.150Z,0.00
2023-05-02T05:53:11.797Z,0.00
2023-05-02T05:55:42.547Z,0.50
2023-05-02T05:58:11.140Z,0.00
2023-05-02T06:00:41.910Z,0.00
2023-05-02T06:03:11.602Z,0.50
2023-05-02T06:05:40.050Z,0.50
2023-05-02T06:08:09.076Z,1.00
2023-05-02T06:10:37.195Z,0.25
2023-05-02T06:13:06.257Z,0.50
2023-05-02T06:15:38.042Z,0.00
2023-05-02T06:18:07.427Z,0.00
2023-05-02T06:20:38.262Z,0.75
2023-05-02T06:23:06.381Z,0.00
2023-05-02T06:25:34.887Z,0.00
2023-05-02T06:28:02.993Z,0.00
2023-05-02T06:30:31.122Z,0.00
2023-05-02T06:32:59.296Z,0.00
2023-05-02T06:35:27.621Z,0.25
2023-05-02T06:37:57.571Z,0.00
2023-05-02T06:40:25.820Z,0.00
2023-05-02T06:42:53.858Z,0.00
2023-05-02T06:45:21.942Z,0.25
2023-05-02T06:47:50.115Z,0.00
2023-05-02T06:50:18.174Z,0.00
2023-05-02T06:52:46.266Z,0.00
2023-05-02T06:55:15.746Z,0.00
2023-05-02T06:57:43.860Z,0.00
2023-05-02T07:00:12.499Z,0.00
2023-05-02T07:02:40.650Z,0.00
2023-05-02T07:05:09.172Z,0.00
2023-05-02T07:08:13.303Z,0.00
2023-05-02T07:10:42.752Z,0.00
2023-05-02T07:13:16.192Z,0.00
2023-05-02T07:15:45.793Z,0.00
2023-05-02T07:18:16.185Z,0.00
2023-05-02T07:20:44.244Z,0.25
2023-05-02T07:23:12.551Z,0.00
2023-05-02T07:25:40.691Z,0.00
2023-05-02T07:28:10.126Z,0.00
2023-05-02T07:30:38.341Z,0.00
2023-05-02T07:33:06.742Z,0.00
2023-05-02T07:35:53.413Z,0.00
2023-05-02T07:38:21.589Z,0.00
2023-05-02T07:40:49.982Z,0.00
2023-05-02T07:43:19.459Z,0.00
2023-05-02T07:45:47.648Z,0.00
2023-05-02T07:48:15.792Z,0.00
2023-05-02T07:50:44.072Z,0.00
2023-05-02T07:53:12.298Z,0.25
2023-05-02T07:55:40.534Z,0.00
2023-05-02T07:58:08.572Z,0.00
2023-05-02T08:00:38.083Z,0.00
2023-05-02T08:03:07.069Z,1.00
2023-05-02T08:05:35.583Z,0.00
2023-05-02T08:08:04.191Z,0.00
2023-05-02T08:10:32.507Z,0.00
2023-05-02T08:13:00.651Z,0.00
2023-05-02T08:15:28.712Z,0.00
2023-05-02T08:17:58.825Z,0.75
2023-05-02T08:20:26.970Z,0.25
2023-05-02T08:22:55.637Z,0.00
2023-05-02T08:25:24.723Z,0.00
2023-05-02T08:27:53.228Z,0.00
2023-05-02T08:30:21.484Z,1.00
2023-05-02T08:32:49.742Z,1.00
2023-05-02T08:35:19.310Z,0.00
2023-05-02T08:37:47.456Z,0.75
2023-05-02T08:40:18.704Z,1.00
2023-05-02T08:42:53.436Z,0.00
2023-05-02T08:45:22.032Z,1.00
2023-05-02T08:47:50.826Z,0.00
2023-05-02T08:50:21.050Z,2.00
2023-05-02T08:52:50.664Z,0.00
2023-05-02T08:55:19.428Z,0.00
2023-05-02T08:57:47.986Z,0.00
2023-05-02T09:00:17.202Z,0.00
2023-05-02T09:02:53.467Z,0.00
2023-05-02T09:08:27.412Z,0.00
2023-05-02T09:10:56.233Z,0.00
2023-05-02T09:13:31.024Z,0.00
2023-05-02T09:16:00.596Z,0.00
2023-05-02T09:18:33.705Z,0.00
2023-05-02T09:21:09.491Z,0.00
2023-05-02T09:23:41.095Z,0.00
2023-05-02T09:26:15.646Z,0.00
2023-05-02T09:28:46.800Z,0.00
2023-05-02T09:31:26.831Z,0.25
2023-05-02T09:35:06.217Z,0.00
2023-05-02T09:38:32.995Z,0.00
2023-05-02T09:41:04.534Z,0.00
2023-05-02T09:43:33.192Z,0.00
2023-05-02T09:46:02.326Z,0.50
2023-05-02T09:48:31.039Z,0.00
2023-05-02T09:50:59.181Z,0.00
2023-05-02T09:53:29.081Z,0.00
2023-05-02T09:56:03.874Z,0.00
2023-05-02T09:58:32.341Z,0.00
2023-05-02T10:01:00.891Z,0.00
2023-05-02T10:03:29.737Z,1.00
2023-05-02T10:05:58.078Z,0.50
2023-05-02T10:08:27.451Z,0.75
2023-05-02T10:10:58.441Z,0.00
2023-05-02T10:13:27.589Z,0.75
2023-05-02T10:15:59.980Z,0.00
2023-05-02T10:18:29.412Z,0.00
2023-05-02T10:20:58.835Z,0.00
2023-05-02T10:23:27.501Z,0.00
2023-05-02T10:26:00.076Z,0.50
2023-05-02T10:28:28.671Z,0.00
2023-05-02T10:30:57.181Z,0.00
2023-05-02T10:33:25.256Z,0.00
2023-05-02T10:35:53.470Z,1.00
2023-05-02T10:38:24.167Z,0.00
2023-05-02T10:40:56.372Z,0.75
2023-05-02T10:43:30.102Z,1.00
2023-05-02T10:45:58.188Z,1.00
2023-05-02T10:48:26.860Z,1.00
2023-05-02T10:50:56.584Z,0.00
2023-05-02T10:53:33.312Z,1.00
2023-05-02T10:56:21.595Z,2.00
2023-05-02T10:58:51.936Z,0.75
2023-05-02T11:01:38.150Z,0.50
2023-05-02T11:04:07.530Z,1.00
2023-05-02T11:06:36.553Z,0.75
2023-05-02T11:09:23.462Z,1.50
2023-05-02T11:11:52.824Z,1.00
2023-05-02T11:14:35.852Z,1.00
2023-05-02T11:17:09.051Z,1.25
2023-05-02T11:19:54.766Z,2.00
2023-05-02T11:22:32.558Z,1.00
2023-05-02T11:25:00.915Z,1.00
2023-05-02T11:27:39.476Z,1.25
2023-05-02T11:30:09.234Z,1.25
2023-05-02T11:32:59.482Z,1.25
2023-05-02T11:35:31.317Z,1.00
2023-05-02T11:38:00.655Z,1.00
2023-05-02T11:40:29.273Z,0.50
2023-05-02T11:42:58.079Z,0.75
2023-05-02T11:45:34.311Z,1.50
2023-05-02T11:48:02.461Z,0.00
2023-05-02T11:50:32.124Z,0.00
2023-05-02T11:53:00.251Z,1.50
2023-05-02T11:55:28.524Z,1.25
2023-05-02T11:57:56.989Z,0.00
2023-05-02T12:00:28.418Z,1.25
2023-05-02T12:02:56.736Z,0.50
2023-05-02T12:05:29.511Z,2.00
2023-05-02T12:07:59.087Z,1.00
2023-05-02T12:10:36.797Z,1.00
2023-05-02T12:13:06.021Z,0.75
2023-05-02T12:15:34.301Z,1.00
2023-05-02T12:18:02.705Z,1.00
2023-05-02T12:20:30.936Z,1.00
2023-05-02T12:23:00.815Z,1.00
2023-05-02T12:25:32.162Z,1.75
2023-05-02T12:28:01.119Z,1.00
2023-05-02T12:30:29.282Z,2.80
2023-05-02T12:32:59.069Z,2.00
2023-05-02T12:35:27.369Z,2.00
2023-05-02T12:37:57.552Z,2.00
2023-05-02T12:40:27.878Z,2.00
2023-05-02T12:43:04.673Z,1.25
2023-05-02T12:45:34.604Z,2.00
2023-05-02T12:48:02.935Z,1.75
2023-05-02T12:50:38.092Z,2.00
2023-05-02T12:53:07.729Z,4.00
2023-05-02T12:55:37.541Z,3.00
2023-05-02T12:58:06.166Z,3.00
2023-05-02T13:00:34.874Z,3.00
2023-05-02T13:03:03.205Z,3.00
2023-05-02T13:05:31.359Z,2.00
2023-05-02T13:08:00.172Z,1.50
2023-05-02T13:10:29.369Z,3.00
2023-05-02T13:13:01.795Z,1.00
2023-05-02T13:15:30.224Z,1.50
2023-05-02T13:17:59.027Z,1.00
2023-05-02T13:20:27.310Z,2.00
2023-05-02T13:22:55.368Z,2.00
2023-05-02T13:25:23.453Z,3.25
2023-05-02T13:27:51.559Z,3.25
2023-05-02T13:30:21.081Z,1.00
2023-05-02T13:32:49.493Z,3.00
2023-05-02T13:35:18.103Z,1.50
2023-05-02T13:37:46.486Z,1.50
2023-05-02T13:40:16.981Z,1.00
2023-05-02T13:42:46.120Z,2.00
2023-05-02T13:45:14.752Z,2.00
2023-05-02T13:47:44.314Z,2.00
2023-05-02T13:50:12.828Z,2.00
2023-05-02T13:52:40.950Z,2.00
2023-05-02T13:55:09.520Z,2.00
2023-05-02T13:57:37.643Z,2.25
2023-05-02T14:00:08.469Z,2.00
2023-05-02T14:02:37.011Z,3.00
2023-05-02T14:05:07.362Z,2.00
2023-05-02T14:07:35.615Z,2.25
2023-05-02T14:10:04.296Z,1.00
2023-05-02T14:12:32.912Z,1.25
2023-05-02T14:15:01.494Z,2.50
2023-05-02T14:17:31.831Z,2.50
2023-05-02T14:20:00.110Z,3.00
2023-05-02T14:22:30.061Z,2.75
2023-05-02T14:24:58.268Z,2.00
2023-05-02T14:27:26.917Z,2.25
2023-05-02T14:29:55.009Z,3.00
2023-05-02T14:32:23.229Z,2.50
2023-05-02T14:34:51.327Z,3.00
2023-05-02T14:37:19.572Z,2.00
2023-05-02T14:39:54.851Z,4.00
2023-05-02T14:42:23.519Z,3.00
2023-05-02T14:44:51.628Z,1.50
2023-05-02T14:47:19.796Z,2.75
2023-05-02T14:49:47.881Z,3.00
2023-05-02T14:52:16.040Z,2.00
2023-05-02T14:54:44.167Z,2.00
2023-05-02T14:57:15.672Z,2.50
2023-05-02T14:59:44.663Z,2.00
2023-05-02T15:02:12.887Z,2.50
2023-05-02T15:04:41.176Z,2.50
2023-05-02T15:07:09.468Z,3.00
2023-05-02T15:09:37.884Z,3.00
2023-05-02T15:12:06.209Z,2.50
2023-05-02T15:14:35.746Z,3.00
2023-05-02T15:17:04.017Z,1.00
2023-05-02T15:19:32.092Z,2.00
2023-05-02T15:22:00.389Z,2.00
2023-05-02T15:24:28.749Z,2.75
2023-05-02T15:26:57.090Z,2.50
2023-05-02T15:29:25.475Z,2.00
2023-05-02T15:31:55.817Z,2.00
2023-05-02T15:34:24.141Z,3.00
2023-05-02T15:36:52.539Z,2.00
2023-05-02T15:39:22.411Z,2.75
2023-05-02T15:41:50.776Z,3.25
2023-05-02T15:44:19.390Z,3.00
2023-05-02T15:46:48.241Z,4.00
2023-05-02T15:49:17.848Z,3.75
2023-05-02T15:51:46.062Z,4.00
2023-05-02T15:54:14.170Z,2.50
2023-05-02T15:56:42.413Z,3.00
2023-05-02T15:59:10.470Z,3.75
2023-05-02T16:01:39.774Z,4.00
2023-05-02T16:04:09.886Z,3.75
2023-05-02T16:06:41.456Z,4.00
2023-05-02T16:09:10.263Z,5.00
2023-05-02T16:11:38.438Z,1.00
2023-05-02T16:14:06.587Z,3.00
2023-05-02T16:16:34.803Z,1.75
2023-05-02T16:19:03.157Z,3.00
2023-05-02T16:21:31.267Z,2.67
2023-05-02T16:24:00.859Z,2.75
2023-05-02T16:26:30.188Z,3.00
2023-05-02T16:28:58.298Z,2.75
2023-05-02T16:31:26.483Z,2.00
2023-05-02T16:33:54.761Z,3.00
2023-05-02T16:36:23.028Z,3.00
2023-05-02T16:38:51.611Z,4.00
2023-05-02T16:41:21.559Z,4.00
2023-05-02T16:43:50.992Z,3.00
2023-05-02T16:46:19.293Z,2.75
2023-05-02T16:48:47.477Z,4.50
2023-05-02T16:51:15.605Z,5.00
2023-05-02T16:53:49.060Z,5.00
2023-05-02T16:56:17.093Z,6.00
2023-05-02T16:58:46.665Z,6.00
2023-05-02T17:01:14.921Z,4.00
2023-05-02T17:03:43.319Z,3.00
2023-05-02T17:06:11.568Z,6.00
2023-05-02T17:08:39.864Z,4.25
2023-05-02T17:11:08.282Z,5.50
2023-05-02T17:13:36.928Z,7.00
2023-05-02T17:16:08.440Z,6.00
2023-05-02T17:18:36.781Z,4.00
2023-05-02T17:21:05.022Z,5.00
2023-05-02T17:23:33.091Z,4.00
2023-05-02T17:26:01.370Z,5.50
2023-05-02T17:28:29.455Z,5.50
2023-05-02T17:30:59.496Z,5.00
2023-05-02T17:33:29.194Z,2.50
2023-05-02T17:35:57.546Z,5.25
2023-05-02T17:38:26.808Z,6.50
2023-05-02T17:40:55.080Z,5.00
2023-05-02T17:43:23.142Z,7.00
2023-05-02T17:45:51.416Z,5.75
2023-05-02T17:48:19.882Z,6.25
2023-05-02T17:50:50.969Z,9.00
2023-05-02T17:53:19.125Z,6.75
2023-05-02T17:55:47.184Z,9.50
2023-05-02T17:58:16.017Z,8.00
2023-05-02T18:00:44.330Z,8.25
2023-05-02T18:03:12.672Z,8.00
2023-05-02T18:05:41.220Z,8.50
2023-05-02T18:08:10.778Z,9.50
2023-05-02T18:10:38.958Z,8.75
2023-05-02T18:13:07.129Z,10.00
2023-05-02T18:15:35.670Z,9.50
2023-05-02T18:18:03.840Z,8.50
2023-05-02T18:20:31.943Z,9.25
2023-05-02T18:23:01.475Z,9.50
2023-05-02T18:25:34.805Z,10.50
2023-05-02T18:28:03.011Z,9.50
2023-05-02T18:30:31.278Z,8.00
2023-05-02T18:32:59.540Z,11.50
2023-05-02T18:35:27.760Z,9.00
2023-05-02T18:37:56.560Z,9.00
2023-05-02T18:40:24.885Z,9.50
2023-05-02T18:42:54.375Z,9.25
2023-05-02T18:45:22.558Z,9.67
2023-05-02T18:47:51.281Z,9.50
2023-05-02T18:50:19.492Z,10.25
2023-05-02T18:52:47.801Z,9.00
2023-05-02T18:55:15.902Z,9.25
2023-05-02T18:57:44.816Z,7.00
2023-05-02T19:00:14.884Z,9.75
2023-05-02T19:02:43.145Z,8.00
2023-05-02T19:05:11.791Z,10.00
2023-05-02T19:07:40.050Z,9.75
2023-05-02T19:10:08.678Z,7.00
2023-05-02T19:12:36.788Z,9.00
2023-05-02T19:15:23.955Z,6.75
2023-05-02T19:17:53.637Z,9.25
2023-05-02T19:20:22.805Z,10.00
2023-05-02T19:23:07.228Z,10.50
2023-05-02T19:25:41.060Z,10.00
2023-05-02T19:28:09.233Z,10.75
2023-05-02T19:30:37.279Z,10.25
2023-05-02T19:33:06.898Z,9.50
2023-05-02T19:35:35.857Z,9.75
2023-05-02T19:38:04.190Z,8.75
2023-05-02T19:40:32.677Z,7.00
2023-05-02T19:43:00.780Z,10.00
2023-05-02T19:45:29.025Z,10.50
2023-05-02T19:47:57.194Z,9.00
2023-05-02T19:50:28.042Z,9.25
2023-05-02T19:52:56.968Z,9.00
2023-05-02T19:55:25.123Z,9.00
2023-05-02T19:57:53.325Z,9.00
2023-05-02T20:00:21.462Z,9.00
2023-05-02T20:02:51.417Z,10.00
2023-05-02T20:05:19.916Z,9.50
2023-05-02T20:07:49.525Z,8.50
2023-05-02T20:10:18.487Z,9.25
2023-05-02T20:12:47.937Z,9.50
2023-05-02T20:15:17.357Z,8.75
2023-05-02T20:17:45.875Z,9.00
2023-05-02T20:20:14.227Z,9.50
2023-05-02T20:22:42.572Z,0.75
2023-05-02T20:25:12.838Z,12.50
2023-05-02T20:27:41.115Z,9.75
2023-05-02T20:30:11.051Z,6.00
2023-05-02T20:32:39.294Z,10.25
2023-05-02T20:35:07.990Z,9.00
2023-05-02T20:37:36.300Z,9.00
2023-05-02T20:40:05.536Z,12.00
2023-05-02T20:42:35.377Z,8.25
2023-05-02T20:45:05.722Z,9.00
2023-05-02T20:47:34.268Z,9.00
2023-05-02T20:50:02.655Z,9.50
2023-05-02T20:52:31.811Z,5.25
2023-05-02T20:55:01.671Z,5.00
2023-05-02T20:57:29.850Z,11.00
2023-05-02T21:00:00.700Z,10.50
2023-05-02T21:02:29.422Z,8.00
2023-05-02T21:04:57.915Z,8.00
2023-05-02T21:07:30.290Z,8.50
2023-05-02T21:09:59.531Z,9.00
2023-05-02T21:12:28.100Z,8.25
2023-05-02T21:14:56.503Z,8.00
2023-05-02T21:17:27.149Z,10.50
2023-05-02T21:19:56.071Z,8.00
2023-05-02T21:22:24.696Z,5.00
2023-05-02T21:24:53.090Z,21.00
2023-05-02T21:27:24.151Z,27.00
2023-05-02T21:29:52.376Z,60.00
2023-05-02T21:32:21.016Z,50.40
2023-05-02T21:34:50.556Z,60.50
2023-05-02T21:37:18.634Z,54.25
2023-05-02T21:39:46.780Z,93.00
2023-05-02T21:42:14.921Z,77.50
2023-05-02T21:44:43.012Z,67.75
2023-05-02T21:47:11.221Z,38.80
2023-05-02T21:49:39.369Z,62.50
2023-05-02T21:52:09.554Z,36.20
2023-05-02T21:54:37.806Z,29.40
2023-05-02T21:57:05.937Z,27.20
2023-05-02T21:59:34.040Z,41.00
2023-05-02T22:02:02.309Z,81.00
2023-05-02T22:04:30.450Z,44.60
2023-05-02T22:06:58.960Z,37.00
2023-05-02T22:09:28.498Z,28.60
2023-05-02T22:11:56.640Z,26.40
2023-05-02T22:14:33.912Z,20.00
2023-05-02T22:17:09.637Z,18.20
2023-05-02T22:19:37.743Z,18.00
2023-05-02T22:22:05.872Z,9.50
2023-05-02T22:24:35.962Z,12.50
2023-05-02T22:27:04.086Z,11.25
2023-05-02T22:29:32.245Z,13.00
2023-05-02T22:32:00.381Z,5.00
2023-05-02T22:34:28.469Z,8.25
2023-05-02T22:36:56.539Z,8.75
2023-05-02T22:39:24.797Z,2.00
2023-05-02T22:41:54.341Z,7.00
2023-05-02T22:44:22.878Z,5.00
2023-05-02T22:46:51.092Z,9.50
2023-05-02T22:49:19.935Z,8.75
2023-05-02T22:51:48.229Z,7.00
2023-05-02T22:54:16.974Z,7.25
2023-05-02T22:56:45.075Z,4.75
2023-05-02T22:59:15.489Z,8.00
2023-05-02T23:01:43.762Z,8.00
2023-05-02T23:04:11.856Z,7.00
2023-05-02T23:06:39.994Z,7.00
2023-05-02T23:09:08.457Z,5.50
2023-05-02T23:11:36.552Z,7.50
2023-05-02T23:14:04.690Z,8.00
2023-05-02T23:16:34.397Z,7.00
2023-05-02T23:19:02.502Z,5.00
2023-05-02T23:21:30.606Z,5.00
2023-05-02T23:23:58.750Z,6.50
2023-05-02T23:26:26.878Z,7.00
2023-05-02T23:28:54.994Z,5.00
2023-05-02T23:31:23.134Z,4.25
2023-05-02T23:33:52.784Z,4.50
2023-05-02T23:36:20.844Z,6.75
2023-05-02T23:38:49.062Z,6.00
2023-05-02T23:41:17.135Z,2.75
2023-05-02T23:43:45.204Z,6.50
2023-05-02T23:46:13.267Z,4.00
2023-05-02T23:48:41.499Z,5.00
2023-05-02T23:51:11.036Z,5.50
2023-05-02T23:53:39.152Z,6.00
2023-05-02T23:56:07.710Z,6.50
2023-05-02T23:58:35.846Z,4.00
